Guatimozin, Argentina
Current Conditions -  °F | °C
As of 3:00 PM on Monday 26 Jan 2015 (Local Time) from SAAR Reporting Station
Broken Clouds Broken Clouds  
Wind Chill: 34°   Ceiling: 20000
Heat Index: 38°   Visibility: 6mi
Dew Point: 22°   Wind: 14mph
Humidity: 49%   Direction: 360°N
Pressure: 29.74"   Gusts: NA
Location:  33.45°S, 62.45°W
Report Text: SAAR 261800Z 36012KT 9999 SCT032 BKN20034/22 Q1007
Loading
Personal Weather Stations






























Interactive Weather Map New forecast layout! Learn more

10-Day Weather Forecast

Advertisements
Track Severe Weather on mobile